createdAt,value
2024-04-18T00:00:11.784Z,438.00
2024-04-18T00:01:11.967Z,439.00
2024-04-18T00:02:11.907Z,437.00
2024-04-18T00:03:12.016Z,437.00
2024-04-18T00:04:12.128Z,434.00
2024-04-18T00:05:12.276Z,434.00
2024-04-18T00:06:12.154Z,434.00
2024-04-18T00:07:12.222Z,436.00
2024-04-18T00:08:12.251Z,438.00
2024-04-18T00:09:12.323Z,442.00
2024-04-18T00:10:12.375Z,444.00
2024-04-18T00:11:12.464Z,443.00
2024-04-18T00:12:12.604Z,442.00
2024-04-18T00:13:12.589Z,439.00
2024-04-18T00:14:12.615Z,439.00
2024-04-18T00:15:12.720Z,439.00
2024-04-18T00:16:12.773Z,440.00
2024-04-18T00:17:12.853Z,442.00
2024-04-18T00:18:12.912Z,441.00
2024-04-18T00:19:12.901Z,442.00
2024-04-18T00:20:12.992Z,443.00
2024-04-18T00:21:13.069Z,442.00
2024-04-18T00:22:13.135Z,443.00
2024-04-18T00:23:13.141Z,442.00
2024-04-18T00:24:13.237Z,441.00
2024-04-18T00:25:13.288Z,440.00
2024-04-18T00:26:13.293Z,440.00
2024-04-18T00:27:13.452Z,438.00
2024-04-18T00:28:13.486Z,435.00
2024-04-18T00:29:13.526Z,435.00
2024-04-18T00:30:13.599Z,435.00
2024-04-18T00:31:13.643Z,434.00
2024-04-18T00:32:13.756Z,435.00
2024-04-18T00:33:13.775Z,435.00
2024-04-18T00:34:13.847Z,436.00
2024-04-18T00:35:13.877Z,436.00
2024-04-18T00:36:13.995Z,437.00
2024-04-18T00:37:14.077Z,435.00
2024-04-18T00:38:14.168Z,436.00
2024-04-18T00:39:14.180Z,436.00
2024-04-18T00:40:14.231Z,437.00
2024-04-18T00:41:14.294Z,437.00
2024-04-18T00:42:14.443Z,438.00
2024-04-18T00:43:14.442Z,442.00
2024-04-18T00:44:14.476Z,443.00
2024-04-18T00:45:14.577Z,442.00
2024-04-18T00:46:14.637Z,440.00
2024-04-18T00:47:14.663Z,441.00
2024-04-18T00:48:14.915Z,439.00
2024-04-18T00:49:14.808Z,438.00
2024-04-18T00:50:14.821Z,438.00
2024-04-18T00:51:14.897Z,437.00
2024-04-18T00:52:15.080Z,437.00
2024-04-18T00:53:15.054Z,437.00
2024-04-18T00:54:15.129Z,437.00
2024-04-18T00:55:16.007Z,439.00
2024-04-18T00:56:18.138Z,438.00
2024-04-18T00:57:15.239Z,438.00
2024-04-18T00:58:15.185Z,437.00
2024-04-18T00:59:15.220Z,437.00
2024-04-18T01:00:15.191Z,436.00
2024-04-18T01:01:15.283Z,436.00
2024-04-18T01:02:15.208Z,437.00
2024-04-18T01:03:15.280Z,437.00
2024-04-18T01:04:15.528Z,438.00
2024-04-18T01:05:15.255Z,439.00
2024-04-18T01:06:15.222Z,438.00
2024-04-18T01:07:15.251Z,438.00
2024-04-18T01:08:15.305Z,437.00
2024-04-18T01:09:15.241Z,435.00
2024-04-18T01:10:15.213Z,435.00
2024-04-18T01:11:15.244Z,435.00
2024-04-18T01:12:15.233Z,436.00
2024-04-18T01:13:15.199Z,435.00
2024-04-18T01:14:15.242Z,436.00
2024-04-18T01:15:15.285Z,437.00
2024-04-18T01:16:15.214Z,439.00
2024-04-18T01:17:15.251Z,439.00
2024-04-18T01:18:15.401Z,441.00
2024-04-18T01:19:15.268Z,441.00
2024-04-18T01:20:15.222Z,442.00
2024-04-18T01:21:15.266Z,440.00
2024-04-18T01:22:15.243Z,441.00
2024-04-18T01:23:15.227Z,442.00
2024-04-18T01:24:15.250Z,439.00
2024-04-18T01:25:15.275Z,442.00
2024-04-18T01:26:15.215Z,441.00
2024-04-18T01:27:15.267Z,439.00
2024-04-18T01:28:15.232Z,441.00
2024-04-18T01:29:15.246Z,440.00
2024-04-18T01:30:15.264Z,442.00
2024-04-18T01:31:15.230Z,441.00
2024-04-18T01:32:15.241Z,439.00
2024-04-18T01:33:15.439Z,440.00
2024-04-18T01:34:15.488Z,440.00
2024-04-18T01:35:15.444Z,440.00
2024-04-18T01:36:15.524Z,442.00
2024-04-18T01:37:15.579Z,441.00
2024-04-18T01:38:15.620Z,441.00
2024-04-18T01:39:15.698Z,441.00
2024-04-18T01:40:15.768Z,442.00
2024-04-18T01:41:15.789Z,440.00
2024-04-18T01:42:15.912Z,438.00
2024-04-18T01:43:15.925Z,436.00
2024-04-18T01:44:16.081Z,435.00
2024-04-18T01:45:16.114Z,435.00
2024-04-18T01:46:16.134Z,436.00
2024-04-18T01:47:16.232Z,434.00
2024-04-18T01:48:16.364Z,431.00
2024-04-18T01:49:16.406Z,429.00
2024-04-18T01:50:16.501Z,430.00
2024-04-18T01:51:16.533Z,430.00
2024-04-18T01:52:16.573Z,431.00
2024-04-18T01:53:16.586Z,432.00
2024-04-18T01:54:16.726Z,434.00
2024-04-18T01:55:16.733Z,435.00
2024-04-18T01:56:16.800Z,434.00
2024-04-18T01:57:16.875Z,433.00
2024-04-18T01:58:16.932Z,433.00
2024-04-18T01:59:17.641Z,433.00
2024-04-18T02:00:17.081Z,432.00
2024-04-18T02:01:17.209Z,432.00
2024-04-18T02:02:17.201Z,433.00
2024-04-18T02:03:17.316Z,433.00
2024-04-18T02:04:17.411Z,432.00
2024-04-18T02:05:17.345Z,433.00
2024-04-18T02:06:17.453Z,435.00
2024-04-18T02:07:17.508Z,435.00
2024-04-18T02:08:17.571Z,434.00
2024-04-18T02:09:17.673Z,433.00
2024-04-18T02:10:17.689Z,434.00
2024-04-18T02:11:17.801Z,432.00
2024-04-18T02:12:17.874Z,431.00
2024-04-18T02:13:17.894Z,433.00
2024-04-18T02:14:17.979Z,435.00
2024-04-18T02:15:18.044Z,435.00
2024-04-18T02:16:18.101Z,437.00
2024-04-18T02:17:18.176Z,439.00
2024-04-18T02:18:18.277Z,438.00
2024-04-18T02:19:18.307Z,437.00
2024-04-18T02:20:18.352Z,439.00
2024-04-18T02:21:18.439Z,437.00
2024-04-18T02:22:18.478Z,438.00
2024-04-18T02:23:18.528Z,438.00
2024-04-18T02:24:18.576Z,438.00
2024-04-18T02:25:18.691Z,434.00
2024-04-18T02:26:18.792Z,433.00
2024-04-18T02:27:18.785Z,432.00
2024-04-18T02:28:18.878Z,432.00
2024-04-18T02:29:18.906Z,433.00
2024-04-18T02:30:19.104Z,434.00
2024-04-18T02:31:19.023Z,435.00
2024-04-18T02:32:19.189Z,436.00
2024-04-18T02:33:19.217Z,434.00
2024-04-18T02:34:19.224Z,433.00
2024-04-18T02:35:19.309Z,431.00
2024-04-18T02:36:19.434Z,433.00
2024-04-18T02:37:19.396Z,436.00
2024-04-18T02:38:19.491Z,435.00
2024-04-18T02:39:19.573Z,435.00
2024-04-18T02:40:19.664Z,437.00
2024-04-18T02:41:19.669Z,436.00
2024-04-18T02:42:19.734Z,436.00
2024-04-18T02:43:19.843Z,433.00
2024-04-18T02:44:19.900Z,433.00
2024-04-18T02:45:19.958Z,435.00
2024-04-18T02:46:19.991Z,435.00
2024-04-18T02:47:20.071Z,433.00
2024-04-18T02:48:20.192Z,435.00
2024-04-18T02:49:20.208Z,434.00
2024-04-18T02:50:20.282Z,432.00
2024-04-18T02:51:20.288Z,432.00
2024-04-18T02:52:20.403Z,430.00
2024-04-18T02:53:20.483Z,430.00
2024-04-18T02:54:20.536Z,429.00
2024-04-18T02:55:20.558Z,429.00
2024-04-18T02:56:20.645Z,427.00
2024-04-18T02:57:20.764Z,427.00
2024-04-18T02:58:20.772Z,424.00
2024-04-18T02:59:20.822Z,424.00
2024-04-18T03:00:20.924Z,423.00
2024-04-18T03:01:20.981Z,424.00
2024-04-18T03:02:21.017Z,426.00
2024-04-18T03:03:21.112Z,425.00
2024-04-18T03:04:21.200Z,424.00
2024-04-18T03:05:21.213Z,427.00
2024-04-18T03:06:21.303Z,425.00
2024-04-18T03:07:21.338Z,425.00
2024-04-18T03:08:21.442Z,425.00
2024-04-18T03:09:21.538Z,428.00
2024-04-18T03:10:21.511Z,430.00
2024-04-18T03:11:21.666Z,430.00
2024-04-18T03:12:21.699Z,429.00
2024-04-18T03:13:21.754Z,428.00
2024-04-18T03:14:21.844Z,428.00
2024-04-18T03:15:21.910Z,429.00
2024-04-18T03:16:21.887Z,430.00
2024-04-18T03:17:22.032Z,429.00
2024-04-18T03:18:22.120Z,428.00
2024-04-18T03:19:22.122Z,427.00
2024-04-18T03:20:22.162Z,428.00
2024-04-18T03:21:22.252Z,428.00
2024-04-18T03:22:22.308Z,428.00
2024-04-18T03:23:22.374Z,430.00
2024-04-18T03:24:22.483Z,431.00
2024-04-18T03:25:22.479Z,430.00
2024-04-18T03:26:22.660Z,427.00
2024-04-18T03:27:22.714Z,425.00
2024-04-18T03:28:22.719Z,423.00
2024-04-18T03:29:22.787Z,424.00
2024-04-18T03:30:22.844Z,425.00
2024-04-18T03:31:22.883Z,426.00
2024-04-18T03:32:23.033Z,426.00
2024-04-18T03:33:23.114Z,425.00
2024-04-18T03:34:23.075Z,425.00
2024-04-18T03:35:23.159Z,426.00
2024-04-18T03:36:23.297Z,426.00
2024-04-18T03:37:23.263Z,425.00
2024-04-18T03:38:23.395Z,427.00
2024-04-18T03:39:23.437Z,429.00
2024-04-18T03:40:23.514Z,428.00
2024-04-18T03:41:23.511Z,429.00
2024-04-18T03:42:23.684Z,427.00
2024-04-18T03:43:23.657Z,426.00
2024-04-18T03:44:23.730Z,427.00
2024-04-18T03:45:23.951Z,426.00
2024-04-18T03:46:23.832Z,425.00
2024-04-18T03:47:23.965Z,426.00
2024-04-18T03:48:24.060Z,427.00
2024-04-18T03:49:24.055Z,426.00
2024-04-18T03:50:24.171Z,426.00
2024-04-18T03:51:24.303Z,425.00
2024-04-18T03:52:24.270Z,425.00
2024-04-18T03:53:24.405Z,428.00
2024-04-18T03:54:24.416Z,427.00
2024-04-18T03:55:24.540Z,427.00
2024-04-18T03:56:24.530Z,427.00
2024-04-18T03:57:24.588Z,426.00
2024-04-18T03:58:24.644Z,424.00
2024-04-18T03:59:24.718Z,425.00
2024-04-18T04:00:24.846Z,424.00
2024-04-18T04:01:32.033Z,432.00
2024-04-18T04:02:31.993Z,437.00
2024-04-18T04:03:31.996Z,434.00
2024-04-18T04:04:32.013Z,432.00
2024-04-18T04:05:31.919Z,433.00
2024-04-18T04:06:33.611Z,434.00
2024-04-18T04:07:31.944Z,438.00
2024-04-18T04:08:31.954Z,438.00
2024-04-18T04:09:31.959Z,439.00
2024-04-18T04:10:31.973Z,440.00
2024-04-18T04:11:32.000Z,442.00
2024-04-18T04:12:31.987Z,446.00
2024-04-18T04:13:31.950Z,447.00
2024-04-18T04:14:32.121Z,447.00
2024-04-18T04:15:32.029Z,446.00
2024-04-18T04:16:31.925Z,448.00
2024-04-18T04:17:31.977Z,448.00
2024-04-18T04:18:31.998Z,447.00
2024-04-18T04:19:32.142Z,446.00
2024-04-18T04:20:31.928Z,448.00
2024-04-18T04:21:31.998Z,448.00
2024-04-18T04:22:33.565Z,450.00
2024-04-18T04:23:31.934Z,450.00
2024-04-18T04:24:31.971Z,451.00
2024-04-18T04:25:31.967Z,454.00
2024-04-18T04:26:31.956Z,453.00
2024-04-18T04:27:31.998Z,450.00
2024-04-18T04:28:31.968Z,451.00
2024-04-18T04:29:32.024Z,450.00
2024-04-18T04:30:39.189Z,460.00
2024-04-18T04:31:46.296Z,455.00
2024-04-18T04:32:46.327Z,455.00
2024-04-18T04:33:46.326Z,457.00
2024-04-18T04:34:46.292Z,454.00
2024-04-18T04:35:46.272Z,452.00
2024-04-18T04:36:46.276Z,449.00
2024-04-18T04:37:46.271Z,446.00
2024-04-18T04:38:46.311Z,445.00
2024-04-18T04:39:46.347Z,446.00
2024-04-18T04:40:46.329Z,446.00
2024-04-18T04:41:46.331Z,449.00
2024-04-18T04:42:46.380Z,452.00
2024-04-18T04:43:46.306Z,455.00
2024-04-18T04:44:46.319Z,455.00
2024-04-18T04:45:46.383Z,455.00
2024-04-18T04:46:46.264Z,456.00
2024-04-18T04:47:46.326Z,455.00
2024-04-18T04:48:46.318Z,454.00
2024-04-18T04:49:46.334Z,452.00
2024-04-18T04:50:46.308Z,451.00
2024-04-18T04:51:46.367Z,449.00
2024-04-18T04:52:46.281Z,451.00
2024-04-18T04:53:46.315Z,450.00
2024-04-18T04:54:46.414Z,448.00
2024-04-18T04:55:46.293Z,447.00
2024-04-18T04:56:46.352Z,446.00
2024-04-18T04:57:46.334Z,446.00
2024-04-18T04:58:46.307Z,447.00
2024-04-18T04:59:46.285Z,447.00
2024-04-18T05:00:46.314Z,445.00
2024-04-18T05:01:46.351Z,444.00
2024-04-18T05:02:48.791Z,443.00
2024-04-18T05:03:46.370Z,442.00
2024-04-18T05:04:46.362Z,444.00
2024-04-18T05:05:46.304Z,447.00
2024-04-18T05:06:46.327Z,447.00
2024-04-18T05:07:46.318Z,444.00
2024-04-18T05:08:46.311Z,445.00
2024-04-18T05:09:46.352Z,443.00
2024-04-18T05:10:46.375Z,440.00
2024-04-18T05:11:46.309Z,440.00
2024-04-18T05:12:46.382Z,437.00
2024-04-18T05:13:46.344Z,438.00
2024-04-18T05:14:46.306Z,439.00
2024-04-18T05:15:46.348Z,440.00
2024-04-18T05:16:46.383Z,441.00
2024-04-18T05:17:46.345Z,441.00
2024-04-18T05:18:46.323Z,440.00
2024-04-18T05:19:46.362Z,442.00
2024-04-18T05:20:46.345Z,441.00
2024-04-18T05:21:46.411Z,441.00
2024-04-18T05:22:46.399Z,439.00
2024-04-18T05:23:46.356Z,440.00
2024-04-18T05:24:46.338Z,438.00
2024-04-18T05:25:46.433Z,437.00
2024-04-18T05:26:46.344Z,440.00
2024-04-18T05:27:46.651Z,443.00
2024-04-18T05:28:46.340Z,446.00
2024-04-18T05:29:46.356Z,451.00
2024-04-18T05:30:46.395Z,456.00
2024-04-18T05:31:46.368Z,455.00
2024-04-18T05:32:46.597Z,459.00
2024-04-18T05:33:46.460Z,461.00
2024-04-18T05:34:46.340Z,464.00
2024-04-18T05:35:46.401Z,469.00
2024-04-18T05:36:46.358Z,475.00
2024-04-18T05:37:46.373Z,522.00
2024-04-18T05:38:46.415Z,548.00
2024-04-18T05:39:46.430Z,562.00
2024-04-18T05:40:46.377Z,996.00
2024-04-18T05:41:46.348Z,643.00
2024-04-18T05:42:46.509Z,695.00
2024-04-18T05:43:46.358Z,631.00
2024-04-18T05:44:46.393Z,693.00
2024-04-18T05:45:46.375Z,670.00
2024-04-18T05:46:46.411Z,656.00
2024-04-18T05:47:46.413Z,642.00
2024-04-18T05:48:46.445Z,681.00
2024-04-18T05:49:46.402Z,702.00
2024-04-18T05:50:46.374Z,740.00
2024-04-18T05:51:46.386Z,744.00
2024-04-18T05:52:46.383Z,755.00
2024-04-18T05:53:46.487Z,777.00
2024-04-18T05:54:46.403Z,797.00
2024-04-18T05:55:46.532Z,823.00
2024-04-18T05:56:46.525Z,837.00
2024-04-18T05:57:46.619Z,836.00
2024-04-18T05:58:46.413Z,837.00
2024-04-18T05:59:46.378Z,842.00
2024-04-18T06:00:46.457Z,866.00
2024-04-18T06:01:46.480Z,882.00
2024-04-18T06:02:46.441Z,890.00
2024-04-18T06:03:46.439Z,921.00
2024-04-18T06:04:46.484Z,934.00
2024-04-18T06:05:46.421Z,925.00
2024-04-18T06:06:46.464Z,919.00
2024-04-18T06:07:46.856Z,920.00
2024-04-18T06:08:46.415Z,934.00
2024-04-18T06:09:46.440Z,952.00
2024-04-18T06:10:46.397Z,956.00
2024-04-18T06:11:46.418Z,954.00
2024-04-18T06:12:46.448Z,953.00
2024-04-18T06:13:46.454Z,954.00
2024-04-18T06:14:46.416Z,955.00
2024-04-18T06:15:46.436Z,1011.00
2024-04-18T06:16:46.695Z,1009.00
2024-04-18T06:17:46.526Z,1012.00
2024-04-18T06:18:46.718Z,1017.00
2024-04-18T06:19:46.493Z,1022.00
2024-04-18T06:20:46.615Z,1025.00
2024-04-18T06:21:46.755Z,1028.00
2024-04-18T06:22:46.564Z,1033.00
2024-04-18T06:23:46.605Z,1039.00
2024-04-18T06:24:48.823Z,1046.00
2024-04-18T06:25:46.745Z,1051.00
2024-04-18T06:26:46.695Z,1057.00
2024-04-18T06:27:46.794Z,1061.00
2024-04-18T06:28:47.062Z,1070.00
2024-04-18T06:29:46.738Z,1071.00
2024-04-18T06:30:46.879Z,1072.00
2024-04-18T06:31:46.994Z,1077.00
2024-04-18T06:32:47.048Z,1077.00
2024-04-18T06:33:46.902Z,1077.00
2024-04-18T06:34:46.876Z,1074.00
2024-04-18T06:35:46.982Z,1075.00
2024-04-18T06:36:47.026Z,1080.00
2024-04-18T06:37:47.029Z,1093.00
2024-04-18T06:38:47.153Z,1098.00
2024-04-18T06:39:47.352Z,1097.00
2024-04-18T06:40:47.238Z,1101.00
2024-04-18T06:41:47.312Z,1107.00
2024-04-18T06:42:47.391Z,855.00
2024-04-18T06:43:47.387Z,826.00
2024-04-18T06:44:48.367Z,813.00
2024-04-18T06:45:47.400Z,795.00
2024-04-18T06:46:53.224Z,764.00
2024-04-18T06:47:48.667Z,679.00
2024-04-18T06:48:47.555Z,670.00
2024-04-18T06:49:47.418Z,655.00
2024-04-18T06:50:47.469Z,641.00
2024-04-18T06:51:47.418Z,638.00
2024-04-18T06:52:47.433Z,645.00
2024-04-18T06:53:47.407Z,644.00
2024-04-18T06:54:47.487Z,635.00
2024-04-18T06:55:47.396Z,629.00
2024-04-18T06:56:47.470Z,623.00
2024-04-18T06:57:47.491Z,620.00
2024-04-18T06:58:47.425Z,618.00
2024-04-18T06:59:47.425Z,615.00
2024-04-18T07:00:48.281Z,615.00
2024-04-18T07:01:47.539Z,620.00
2024-04-18T07:02:47.486Z,623.00
2024-04-18T07:03:47.695Z,618.00
2024-04-18T07:04:47.850Z,615.00
2024-04-18T07:05:47.674Z,619.00
2024-04-18T07:06:47.820Z,644.00
2024-04-18T07:07:47.846Z,653.00
2024-04-18T07:08:47.846Z,657.00
2024-04-18T07:09:49.857Z,659.00
2024-04-18T07:10:48.030Z,668.00
2024-04-18T07:11:48.038Z,674.00
2024-04-18T07:12:48.126Z,677.00
2024-04-18T07:13:48.137Z,679.00
2024-04-18T07:14:48.166Z,681.00
2024-04-18T07:15:48.242Z,687.00
2024-04-18T07:16:48.594Z,687.00
2024-04-18T07:17:49.191Z,688.00
2024-04-18T07:18:48.515Z,767.00
2024-04-18T07:19:48.452Z,759.00
2024-04-18T07:20:48.405Z,777.00
2024-04-18T07:21:48.559Z,803.00
2024-04-18T07:22:48.505Z,723.00
2024-04-18T07:23:48.480Z,697.00
2024-04-18T07:24:48.518Z,650.00
2024-04-18T07:25:48.578Z,642.00
2024-04-18T07:26:48.764Z,631.00
2024-04-18T07:27:48.722Z,630.00
2024-04-18T07:28:48.816Z,630.00
2024-04-18T07:29:48.719Z,626.00
2024-04-18T07:30:48.869Z,626.00
2024-04-18T07:31:48.843Z,636.00
2024-04-18T07:32:48.965Z,721.00
2024-04-18T07:33:48.919Z,677.00
2024-04-18T07:34:48.882Z,626.00
2024-04-18T07:35:48.871Z,625.00
2024-04-18T07:36:49.667Z,623.00
2024-04-18T07:37:51.780Z,630.00
2024-04-18T07:38:49.429Z,645.00
2024-04-18T07:39:48.940Z,655.00
2024-04-18T07:40:48.850Z,664.00
2024-04-18T07:41:48.856Z,674.00
2024-04-18T07:42:48.952Z,681.00
2024-04-18T07:43:48.910Z,685.00
2024-04-18T07:44:48.894Z,690.00
2024-04-18T07:45:48.912Z,693.00
2024-04-18T07:46:48.920Z,700.00
2024-04-18T07:47:49.008Z,707.00
2024-04-18T07:48:49.014Z,707.00
2024-04-18T07:49:49.630Z,709.00
2024-04-18T07:50:48.900Z,711.00
2024-04-18T07:51:49.810Z,714.00
2024-04-18T07:52:56.854Z,716.00
2024-04-18T07:53:50.017Z,721.00
2024-04-18T07:54:48.982Z,725.00
2024-04-18T07:55:48.881Z,730.00
2024-04-18T07:56:49.299Z,733.00
2024-04-18T07:57:49.459Z,738.00
2024-04-18T07:58:49.657Z,741.00
2024-04-18T07:59:49.769Z,742.00
2024-04-18T08:00:50.123Z,749.00
2024-04-18T08:01:50.435Z,755.00
2024-04-18T08:02:50.801Z,759.00
2024-04-18T08:04:02.413Z,761.00
2024-04-18T08:04:55.208Z,766.00
2024-04-18T08:05:51.766Z,771.00
2024-04-18T08:06:51.075Z,778.00
2024-04-18T08:07:51.342Z,781.00
2024-04-18T08:08:51.472Z,788.00
2024-04-18T08:09:52.696Z,793.00
2024-04-18T08:12:53.211Z,808.00
2024-04-18T08:13:52.843Z,814.00
2024-04-18T08:14:53.342Z,816.00
2024-04-18T08:16:48.960Z,824.00
2024-04-18T08:17:49.005Z,829.00
2024-04-18T08:18:48.985Z,833.00
2024-04-18T08:19:48.987Z,834.00
2024-04-18T08:20:48.984Z,832.00
2024-04-18T08:21:48.960Z,829.00
2024-04-18T08:22:48.979Z,833.00
2024-04-18T08:23:48.979Z,840.00
2024-04-18T08:24:48.988Z,835.00
2024-04-18T08:25:49.138Z,832.00
2024-04-18T08:26:48.949Z,819.00
2024-04-18T08:27:48.984Z,808.00
2024-04-18T08:28:49.065Z,772.00
2024-04-18T08:29:48.958Z,775.00
2024-04-18T08:30:48.922Z,766.00
2024-04-18T08:31:48.970Z,754.00
2024-04-18T08:32:49.025Z,745.00
2024-04-18T08:33:57.847Z,731.00
2024-04-18T08:34:50.044Z,723.00
2024-04-18T08:35:48.962Z,713.00
2024-04-18T08:36:48.978Z,704.00
2024-04-18T08:37:48.974Z,695.00
2024-04-18T08:38:48.986Z,686.00
2024-04-18T08:39:49.146Z,680.00
2024-04-18T08:40:48.961Z,671.00
2024-04-18T08:41:48.972Z,668.00
2024-04-18T08:42:49.053Z,664.00
2024-04-18T08:43:52.222Z,658.00
2024-04-18T08:44:48.953Z,659.00
2024-04-18T08:45:48.956Z,660.00
2024-04-18T08:46:48.986Z,662.00
2024-04-18T08:47:49.201Z,665.00
2024-04-18T08:48:49.116Z,671.00
2024-04-18T08:49:48.999Z,691.00
2024-04-18T08:50:49.019Z,710.00
2024-04-18T08:51:49.051Z,735.00
2024-04-18T08:52:49.007Z,749.00
2024-04-18T08:53:49.014Z,762.00
2024-04-18T08:54:49.045Z,779.00
2024-04-18T08:55:48.968Z,793.00
2024-04-18T08:56:49.018Z,806.00
2024-04-18T08:57:49.030Z,816.00
2024-04-18T08:58:49.020Z,825.00
2024-04-18T08:59:49.028Z,830.00
2024-04-18T09:00:49.052Z,836.00
2024-04-18T09:01:49.010Z,845.00
2024-04-18T09:02:49.124Z,857.00
2024-04-18T09:03:49.038Z,870.00
2024-04-18T09:04:49.032Z,883.00
2024-04-18T09:05:49.010Z,889.00
2024-04-18T09:06:49.008Z,885.00
2024-04-18T09:07:49.009Z,888.00
2024-04-18T09:08:49.012Z,890.00
2024-04-18T09:09:49.023Z,883.00
2024-04-18T09:10:49.140Z,881.00
2024-04-18T09:11:49.019Z,880.00
2024-04-18T09:12:49.003Z,877.00
2024-04-18T09:13:49.057Z,871.00
2024-04-18T09:14:49.057Z,864.00
2024-04-18T09:15:49.058Z,863.00
2024-04-18T09:16:49.050Z,859.00
2024-04-18T09:17:49.080Z,853.00
2024-04-18T09:18:49.130Z,843.00
2024-04-18T09:19:49.059Z,832.00
2024-04-18T09:20:49.040Z,824.00
2024-04-18T09:21:49.069Z,813.00
2024-04-18T09:22:49.044Z,807.00
2024-04-18T09:23:49.026Z,774.00
2024-04-18T09:24:49.019Z,780.00
2024-04-18T09:25:49.051Z,866.00
2024-04-18T09:26:49.036Z,864.00
2024-04-18T09:27:50.026Z,799.00
2024-04-18T09:28:49.033Z,783.00
2024-04-18T09:29:49.071Z,789.00
2024-04-18T09:30:49.027Z,806.00
2024-04-18T09:31:49.048Z,801.00
2024-04-18T09:32:49.140Z,791.00
2024-04-18T09:33:49.193Z,779.00
2024-04-18T09:34:49.097Z,770.00
2024-04-18T09:35:49.031Z,768.00
2024-04-18T09:36:49.147Z,768.00
2024-04-18T09:37:53.535Z,776.00
2024-04-18T09:38:50.043Z,780.00
2024-04-18T09:39:49.106Z,783.00
2024-04-18T09:40:49.020Z,792.00
2024-04-18T09:41:49.108Z,823.00
2024-04-18T09:42:49.046Z,829.00
2024-04-18T09:43:49.066Z,840.00
2024-04-18T09:44:49.068Z,844.00
2024-04-18T09:45:49.055Z,848.00
2024-04-18T09:46:50.603Z,855.00
2024-04-18T09:47:49.161Z,858.00
2024-04-18T09:48:49.155Z,857.00
2024-04-18T09:49:51.029Z,864.00
2024-04-18T09:50:49.056Z,870.00
2024-04-18T09:51:49.034Z,874.00
2024-04-18T09:52:49.149Z,873.00
2024-04-18T09:53:49.075Z,876.00
2024-04-18T09:54:49.059Z,878.00
2024-04-18T09:55:49.096Z,880.00
2024-04-18T09:56:49.047Z,879.00
2024-04-18T09:57:49.086Z,884.00
2024-04-18T09:58:49.067Z,887.00
2024-04-18T09:59:49.070Z,888.00
2024-04-18T10:00:49.080Z,895.00
2024-04-18T10:01:49.089Z,904.00
2024-04-18T10:02:49.634Z,908.00
2024-04-18T10:03:49.284Z,911.00
2024-04-18T10:04:49.204Z,913.00
2024-04-18T10:05:49.080Z,919.00
2024-04-18T10:06:49.485Z,919.00
2024-04-18T10:07:49.122Z,923.00
2024-04-18T10:08:49.121Z,927.00
2024-04-18T10:09:49.129Z,929.00
2024-04-18T10:10:49.591Z,931.00
2024-04-18T10:11:49.162Z,934.00
2024-04-18T10:12:50.085Z,942.00
2024-04-18T10:13:49.118Z,950.00
2024-04-18T10:14:49.633Z,959.00
2024-04-18T10:15:49.202Z,972.00
2024-04-18T10:16:49.246Z,969.00
2024-04-18T10:17:49.448Z,974.00
2024-04-18T10:18:51.599Z,975.00
2024-04-18T10:19:49.627Z,978.00
2024-04-18T10:20:49.997Z,984.00
2024-04-18T10:22:01.067Z,997.00
2024-04-18T10:22:50.459Z,1002.00
2024-04-18T10:23:49.588Z,881.00
2024-04-18T10:24:49.449Z,767.00
2024-04-18T10:25:49.510Z,732.00
2024-04-18T10:26:49.414Z,729.00
2024-04-18T10:27:49.382Z,688.00
2024-04-18T10:28:49.457Z,750.00
2024-04-18T10:29:49.680Z,792.00
2024-04-18T10:30:49.486Z,775.00
2024-04-18T10:31:49.439Z,784.00
2024-04-18T10:32:49.788Z,788.00
2024-04-18T10:33:49.632Z,797.00
2024-04-18T10:34:49.608Z,797.00
2024-04-18T10:35:50.156Z,783.00
2024-04-18T10:36:49.755Z,765.00
2024-04-18T10:37:49.855Z,748.00
2024-04-18T10:38:49.930Z,738.00
2024-04-18T10:39:49.963Z,728.00
2024-04-18T10:40:50.029Z,719.00
2024-04-18T10:41:50.103Z,704.00
2024-04-18T10:42:50.144Z,677.00
2024-04-18T10:43:50.236Z,668.00
2024-04-18T10:44:50.304Z,660.00
2024-04-18T10:45:50.333Z,650.00
2024-04-18T10:46:50.410Z,642.00
2024-04-18T10:47:50.583Z,638.00
2024-04-18T10:48:50.598Z,637.00
2024-04-18T10:49:50.563Z,635.00
2024-04-18T10:50:50.605Z,630.00
2024-04-18T10:51:50.722Z,628.00
2024-04-18T10:52:51.123Z,624.00
2024-04-18T10:53:50.753Z,622.00
2024-04-18T10:54:50.835Z,618.00
2024-04-18T10:55:50.874Z,615.00
2024-04-18T10:56:50.924Z,613.00
2024-04-18T10:57:51.034Z,610.00
2024-04-18T10:58:51.014Z,608.00
2024-04-18T10:59:51.099Z,606.00
2024-04-18T11:00:51.134Z,603.00
2024-04-18T11:01:51.202Z,605.00
2024-04-18T11:02:51.659Z,603.00
2024-04-18T11:03:51.550Z,600.00
2024-04-18T11:04:51.311Z,599.00
2024-04-18T11:05:51.369Z,595.00
2024-04-18T11:06:51.402Z,595.00
2024-04-18T11:07:51.489Z,594.00
2024-04-18T11:08:51.509Z,590.00
2024-04-18T11:09:51.582Z,585.00
2024-04-18T11:10:51.646Z,587.00
2024-04-18T11:11:51.708Z,592.00
2024-04-18T11:12:51.746Z,596.00
2024-04-18T11:13:52.164Z,599.00
2024-04-18T11:14:51.823Z,600.00
2024-04-18T11:15:51.873Z,601.00
2024-04-18T11:16:52.169Z,603.00
2024-04-18T11:17:52.097Z,605.00
2024-04-18T11:18:52.173Z,606.00
2024-04-18T11:19:52.070Z,607.00
2024-04-18T11:20:52.144Z,609.00
2024-04-18T11:21:52.651Z,611.00
2024-04-18T11:22:57.279Z,611.00
2024-04-18T11:23:53.266Z,614.00
2024-04-18T11:24:52.372Z,615.00
2024-04-18T11:25:52.272Z,663.00
2024-04-18T11:26:52.253Z,696.00
2024-04-18T11:27:52.254Z,692.00
2024-04-18T11:28:52.278Z,694.00
2024-04-18T11:29:52.240Z,669.00
2024-04-18T11:30:52.236Z,607.00
2024-04-18T11:31:52.261Z,621.00
2024-04-18T11:32:52.359Z,630.00
2024-04-18T11:33:52.446Z,644.00
2024-04-18T11:35:00.089Z,643.00
2024-04-18T11:35:53.415Z,633.00
2024-04-18T11:36:52.423Z,619.00
2024-04-18T11:37:52.417Z,614.00
2024-04-18T11:38:52.395Z,609.00
2024-04-18T11:39:52.411Z,604.00
2024-04-18T11:40:52.488Z,597.00
2024-04-18T11:41:52.436Z,589.00
2024-04-18T11:42:52.457Z,582.00
2024-04-18T11:43:52.496Z,578.00
2024-04-18T11:44:52.558Z,575.00
2024-04-18T11:45:52.612Z,572.00
2024-04-18T11:46:52.693Z,567.00
2024-04-18T11:47:52.815Z,564.00
2024-04-18T11:48:52.920Z,560.00
2024-04-18T11:49:52.908Z,555.00
2024-04-18T11:50:52.971Z,553.00
2024-04-18T11:51:53.036Z,546.00
2024-04-18T11:52:53.114Z,543.00
2024-04-18T11:53:53.156Z,550.00
2024-04-18T11:54:53.232Z,549.00
2024-04-18T11:55:54.804Z,548.00
2024-04-18T11:56:53.251Z,548.00
2024-04-18T11:57:53.299Z,551.00
2024-04-18T11:58:53.568Z,556.00
2024-04-18T11:59:53.300Z,558.00
2024-04-18T12:00:53.332Z,560.00
2024-04-18T12:01:53.286Z,573.00
2024-04-18T12:02:53.299Z,607.00
2024-04-18T12:03:53.394Z,626.00
2024-04-18T12:04:53.374Z,684.00
2024-04-18T12:05:53.295Z,697.00
2024-04-18T12:06:54.045Z,713.00
2024-04-18T12:07:53.273Z,722.00
2024-04-18T12:08:55.096Z,725.00
2024-04-18T12:09:53.260Z,715.00
2024-04-18T12:10:53.325Z,703.00
2024-04-18T12:11:53.408Z,692.00
2024-04-18T12:12:53.377Z,655.00
2024-04-18T12:13:53.447Z,649.00
2024-04-18T12:14:53.462Z,659.00
2024-04-18T12:15:53.611Z,676.00
2024-04-18T12:16:54.431Z,699.00
2024-04-18T12:17:53.481Z,757.00
2024-04-18T12:18:53.530Z,815.00
2024-04-18T12:19:53.490Z,753.00
2024-04-18T12:20:53.475Z,755.00
2024-04-18T12:21:53.731Z,760.00
2024-04-18T12:22:53.573Z,769.00
2024-04-18T12:23:53.600Z,776.00
2024-04-18T12:24:53.682Z,786.00
2024-04-18T12:25:53.746Z,801.00
2024-04-18T12:26:53.790Z,813.00
2024-04-18T12:27:53.819Z,821.00
2024-04-18T12:28:53.924Z,835.00
2024-04-18T12:29:53.947Z,849.00
2024-04-18T12:30:54.094Z,866.00